sensor_id;sensor_type;location;lat;lon;timestamp;P1;durP1;ratioP1;P2;durP2;ratioP2
173;SDS011;75;48.784;9.364;2022-07-25T00:01:42;15.10;;;12.13;;
173;SDS011;75;48.784;9.364;2022-07-25T00:04:08;14.70;;;12.40;;
173;SDS011;75;48.784;9.364;2022-07-25T00:06:36;15.77;;;12.10;;
173;SDS011;75;48.784;9.364;2022-07-25T00:09:02;14.80;;;11.97;;
173;SDS011;75;48.784;9.364;2022-07-25T00:11:28;13.97;;;11.80;;
173;SDS011;75;48.784;9.364;2022-07-25T00:13:54;13.00;;;11.37;;
173;SDS011;75;48.784;9.364;2022-07-25T00:16:19;13.17;;;11.27;;
173;SDS011;75;48.784;9.364;2022-07-25T00:18:45;13.47;;;11.60;;
173;SDS011;75;48.784;9.364;2022-07-25T00:21:10;12.67;;;10.87;;
173;SDS011;75;48.784;9.364;2022-07-25T00:23:36;13.97;;;11.53;;
173;SDS011;75;48.784;9.364;2022-07-25T00:26:02;15.17;;;11.70;;
173;SDS011;75;48.784;9.364;2022-07-25T00:28:28;14.10;;;11.97;;
173;SDS011;75;48.784;9.364;2022-07-25T00:30:53;14.90;;;12.27;;
173;SDS011;75;48.784;9.364;2022-07-25T00:33:19;16.87;;;12.40;;
173;SDS011;75;48.784;9.364;2022-07-25T00:35:45;14.73;;;12.03;;
173;SDS011;75;48.784;9.364;2022-07-25T00:38:10;14.27;;;11.60;;
173;SDS011;75;48.784;9.364;2022-07-25T00:40:36;14.90;;;11.90;;
173;SDS011;75;48.784;9.364;2022-07-25T00:43:02;15.17;;;12.10;;
173;SDS011;75;48.784;9.364;2022-07-25T00:45:28;14.60;;;12.40;;
173;SDS011;75;48.784;9.364;2022-07-25T00:47:53;19.67;;;12.80;;
173;SDS011;75;48.784;9.364;2022-07-25T00:50:19;22.07;;;12.00;;
173;SDS011;75;48.784;9.364;2022-07-25T00:52:45;14.27;;;12.07;;
173;SDS011;75;48.784;9.364;2022-07-25T00:55:11;15.00;;;12.57;;
173;SDS011;75;48.784;9.364;2022-07-25T00:57:37;16.13;;;12.57;;
173;SDS011;75;48.784;9.364;2022-07-25T01:00:08;17.00;;;12.30;;
173;SDS011;75;48.784;9.364;2022-07-25T01:02:36;14.10;;;11.83;;
173;SDS011;75;48.784;9.364;2022-07-25T01:05:02;14.40;;;12.10;;
173;SDS011;75;48.784;9.364;2022-07-25T01:07:29;15.40;;;12.20;;
173;SDS011;75;48.784;9.364;2022-07-25T01:09:59;14.30;;;11.37;;
173;SDS011;75;48.784;9.364;2022-07-25T01:12:25;13.80;;;11.63;;
173;SDS011;75;48.784;9.364;2022-07-25T01:14:51;15.33;;;12.40;;
173;SDS011;75;48.784;9.364;2022-07-25T01:17:16;18.37;;;12.57;;
173;SDS011;75;48.784;9.364;2022-07-25T01:19:42;13.70;;;12.10;;
173;SDS011;75;48.784;9.364;2022-07-25T01:22:08;15.40;;;12.47;;
173;SDS011;75;48.784;9.364;2022-07-25T01:24:34;15.87;;;12.67;;
173;SDS011;75;48.784;9.364;2022-07-25T01:27:00;15.60;;;12.60;;
173;SDS011;75;48.784;9.364;2022-07-25T01:29:27;14.63;;;12.37;;
173;SDS011;75;48.784;9.364;2022-07-25T01:31:52;12.80;;;11.50;;
173;SDS011;75;48.784;9.364;2022-07-25T01:34:18;14.40;;;12.00;;
173;SDS011;75;48.784;9.364;2022-07-25T01:36:44;12.93;;;11.80;;
173;SDS011;75;48.784;9.364;2022-07-25T01:39:09;17.87;;;11.73;;
173;SDS011;75;48.784;9.364;2022-07-25T01:41:35;14.03;;;11.93;;
173;SDS011;75;48.784;9.364;2022-07-25T01:44:01;14.50;;;12.20;;
173;SDS011;75;48.784;9.364;2022-07-25T01:46:27;14.47;;;12.63;;
173;SDS011;75;48.784;9.364;2022-07-25T01:48:53;15.00;;;12.60;;
173;SDS011;75;48.784;9.364;2022-07-25T01:51:18;13.77;;;12.40;;
173;SDS011;75;48.784;9.364;2022-07-25T01:53:44;15.13;;;12.90;;
173;SDS011;75;48.784;9.364;2022-07-25T01:56:10;17.63;;;12.83;;
173;SDS011;75;48.784;9.364;2022-07-25T01:58:35;16.23;;;12.53;;
173;SDS011;75;48.784;9.364;2022-07-25T02:01:01;19.13;;;12.77;;
173;SDS011;75;48.784;9.364;2022-07-25T02:03:27;16.27;;;12.30;;
173;SDS011;75;48.784;9.364;2022-07-25T02:06:02;14.83;;;11.80;;
173;SDS011;75;48.784;9.364;2022-07-25T02:08:30;16.70;;;13.10;;
173;SDS011;75;48.784;9.364;2022-07-25T02:10:56;17.00;;;12.67;;
173;SDS011;75;48.784;9.364;2022-07-25T02:13:22;16.30;;;12.97;;
173;SDS011;75;48.784;9.364;2022-07-25T02:15:49;15.00;;;12.60;;
173;SDS011;75;48.784;9.364;2022-07-25T02:18:15;18.17;;;13.20;;
173;SDS011;75;48.784;9.364;2022-07-25T02:20:40;17.63;;;12.80;;
173;SDS011;75;48.784;9.364;2022-07-25T02:23:06;15.73;;;13.33;;
173;SDS011;75;48.784;9.364;2022-07-25T02:25:32;14.50;;;12.30;;
173;SDS011;75;48.784;9.364;2022-07-25T02:27:58;15.93;;;13.13;;
173;SDS011;75;48.784;9.364;2022-07-25T02:30:24;15.17;;;12.20;;
173;SDS011;75;48.784;9.364;2022-07-25T02:32:50;17.27;;;13.37;;
173;SDS011;75;48.784;9.364;2022-07-25T02:35:16;15.10;;;13.50;;
173;SDS011;75;48.784;9.364;2022-07-25T02:37:42;16.23;;;13.17;;
173;SDS011;75;48.784;9.364;2022-07-25T02:40:08;15.10;;;12.60;;
173;SDS011;75;48.784;9.364;2022-07-25T02:42:34;15.23;;;13.00;;
173;SDS011;75;48.784;9.364;2022-07-25T02:45:00;18.80;;;14.50;;
173;SDS011;75;48.784;9.364;2022-07-25T02:47:26;15.47;;;12.87;;
173;SDS011;75;48.784;9.364;2022-07-25T02:49:51;15.50;;;13.07;;
173;SDS011;75;48.784;9.364;2022-07-25T02:52:17;14.90;;;13.10;;
173;SDS011;75;48.784;9.364;2022-07-25T02:54:43;16.80;;;13.70;;
173;SDS011;75;48.784;9.364;2022-07-25T02:57:09;14.60;;;12.30;;
173;SDS011;75;48.784;9.364;2022-07-25T02:59:34;14.47;;;12.70;;
173;SDS011;75;48.784;9.364;2022-07-25T03:02:00;15.10;;;12.60;;
173;SDS011;75;48.784;9.364;2022-07-25T03:04:26;17.53;;;13.23;;
173;SDS011;75;48.784;9.364;2022-07-25T03:06:51;15.10;;;13.23;;
173;SDS011;75;48.784;9.364;2022-07-25T03:09:17;17.27;;;14.07;;
173;SDS011;75;48.784;9.364;2022-07-25T03:11:43;17.33;;;13.27;;
173;SDS011;75;48.784;9.364;2022-07-25T03:14:09;15.90;;;13.03;;
173;SDS011;75;48.784;9.364;2022-07-25T03:16:34;17.07;;;13.93;;
173;SDS011;75;48.784;9.364;2022-07-25T03:19:00;17.77;;;14.20;;
173;SDS011;75;48.784;9.364;2022-07-25T03:21:26;16.10;;;14.00;;
173;SDS011;75;48.784;9.364;2022-07-25T03:23:52;18.40;;;13.57;;
173;SDS011;75;48.784;9.364;2022-07-25T03:26:17;15.00;;;13.10;;
173;SDS011;75;48.784;9.364;2022-07-25T03:28:43;16.30;;;13.53;;
173;SDS011;75;48.784;9.364;2022-07-25T03:31:09;17.07;;;14.13;;
173;SDS011;75;48.784;9.364;2022-07-25T03:33:34;17.23;;;14.10;;
173;SDS011;75;48.784;9.364;2022-07-25T03:36:00;15.90;;;13.93;;
173;SDS011;75;48.784;9.364;2022-07-25T03:38:27;15.47;;;13.27;;
173;SDS011;75;48.784;9.364;2022-07-25T03:40:53;13.20;;;10.80;;
173;SDS011;75;48.784;9.364;2022-07-25T03:43:19;16.03;;;13.50;;
173;SDS011;75;48.784;9.364;2022-07-25T03:45:45;20.30;;;14.30;;
173;SDS011;75;48.784;9.364;2022-07-25T03:48:10;16.40;;;14.13;;
173;SDS011;75;48.784;9.364;2022-07-25T03:50:36;17.00;;;13.53;;
173;SDS011;75;48.784;9.364;2022-07-25T03:53:02;14.40;;;12.97;;
173;SDS011;75;48.784;9.364;2022-07-25T03:55:27;18.37;;;14.03;;
173;SDS011;75;48.784;9.364;2022-07-25T03:57:53;19.00;;;14.70;;
173;SDS011;75;48.784;9.364;2022-07-25T04:00:18;17.40;;;14.83;;
173;SDS011;75;48.784;9.364;2022-07-25T04:02:44;15.73;;;14.00;;
173;SDS011;75;48.784;9.364;2022-07-25T04:05:10;17.53;;;13.60;;
173;SDS011;75;48.784;9.364;2022-07-25T04:07:36;18.20;;;14.47;;
173;SDS011;75;48.784;9.364;2022-07-25T04:10:05;16.50;;;14.73;;
173;SDS011;75;48.784;9.364;2022-07-25T04:12:32;17.87;;;14.63;;
173;SDS011;75;48.784;9.364;2022-07-25T04:14:57;18.33;;;14.60;;
173;SDS011;75;48.784;9.364;2022-07-25T04:17:23;17.93;;;14.50;;
173;SDS011;75;48.784;9.364;2022-07-25T04:19:49;18.33;;;15.30;;
173;SDS011;75;48.784;9.364;2022-07-25T04:22:15;19.17;;;15.03;;
173;SDS011;75;48.784;9.364;2022-07-25T04:24:41;18.50;;;14.60;;
173;SDS011;75;48.784;9.364;2022-07-25T04:27:06;15.87;;;13.60;;
173;SDS011;75;48.784;9.364;2022-07-25T04:29:32;18.23;;;14.60;;
173;SDS011;75;48.784;9.364;2022-07-25T04:31:57;18.27;;;14.13;;
173;SDS011;75;48.784;9.364;2022-07-25T04:34:23;17.50;;;14.17;;
173;SDS011;75;48.784;9.364;2022-07-25T04:36:49;18.43;;;13.87;;
173;SDS011;75;48.784;9.364;2022-07-25T04:39:14;16.30;;;14.60;;
173;SDS011;75;48.784;9.364;2022-07-25T04:41:40;17.47;;;14.33;;
173;SDS011;75;48.784;9.364;2022-07-25T04:44:06;16.37;;;13.97;;
173;SDS011;75;48.784;9.364;2022-07-25T04:46:32;18.47;;;14.83;;
173;SDS011;75;48.784;9.364;2022-07-25T04:48:59;20.30;;;14.60;;
173;SDS011;75;48.784;9.364;2022-07-25T04:51:24;16.10;;;14.30;;
173;SDS011;75;48.784;9.364;2022-07-25T04:53:50;17.97;;;14.97;;
173;SDS011;75;48.784;9.364;2022-07-25T04:56:15;17.47;;;14.93;;
173;SDS011;75;48.784;9.364;2022-07-25T04:58:41;18.97;;;14.77;;
173;SDS011;75;48.784;9.364;2022-07-25T05:01:07;18.00;;;15.03;;
173;SDS011;75;48.784;9.364;2022-07-25T05:03:33;19.90;;;14.50;;
173;SDS011;75;48.784;9.364;2022-07-25T05:05:58;19.67;;;14.40;;
173;SDS011;75;48.784;9.364;2022-07-25T05:08:24;16.97;;;13.73;;
173;SDS011;75;48.784;9.364;2022-07-25T05:10:50;15.37;;;13.50;;
173;SDS011;75;48.784;9.364;2022-07-25T05:13:15;19.57;;;13.20;;
173;SDS011;75;48.784;9.364;2022-07-25T05:15:41;15.87;;;13.70;;
173;SDS011;75;48.784;9.364;2022-07-25T05:18:06;17.43;;;13.73;;
173;SDS011;75;48.784;9.364;2022-07-25T05:20:32;17.37;;;14.00;;
173;SDS011;75;48.784;9.364;2022-07-25T05:22:58;17.10;;;14.10;;
173;SDS011;75;48.784;9.364;2022-07-25T05:25:23;18.20;;;13.80;;
173;SDS011;75;48.784;9.364;2022-07-25T05:27:49;17.87;;;14.70;;
173;SDS011;75;48.784;9.364;2022-07-25T05:30:16;15.93;;;13.77;;
173;SDS011;75;48.784;9.364;2022-07-25T05:32:41;15.70;;;13.60;;
173;SDS011;75;48.784;9.364;2022-07-25T05:35:07;15.20;;;13.33;;
173;SDS011;75;48.784;9.364;2022-07-25T05:37:35;17.70;;;13.70;;
173;SDS011;75;48.784;9.364;2022-07-25T05:40:01;17.43;;;13.73;;
173;SDS011;75;48.784;9.364;2022-07-25T05:42:28;16.73;;;13.70;;
173;SDS011;75;48.784;9.364;2022-07-25T05:44:54;17.37;;;13.60;;
173;SDS011;75;48.784;9.364;2022-07-25T05:47:20;15.10;;;13.20;;
173;SDS011;75;48.784;9.364;2022-07-25T05:49:45;17.20;;;13.13;;
173;SDS011;75;48.784;9.364;2022-07-25T05:52:11;16.07;;;13.37;;
173;SDS011;75;48.784;9.364;2022-07-25T05:54:37;15.70;;;12.90;;
173;SDS011;75;48.784;9.364;2022-07-25T05:57:02;15.20;;;12.20;;
173;SDS011;75;48.784;9.364;2022-07-25T05:59:28;14.90;;;12.77;;
173;SDS011;75;48.784;9.364;2022-07-25T06:01:54;14.60;;;12.60;;
173;SDS011;75;48.784;9.364;2022-07-25T06:04:19;17.50;;;13.07;;
173;SDS011;75;48.784;9.364;2022-07-25T06:06:45;15.80;;;13.20;;
173;SDS011;75;48.784;9.364;2022-07-25T06:09:20;16.00;;;13.60;;
173;SDS011;75;48.784;9.364;2022-07-25T06:11:47;15.47;;;12.67;;
173;SDS011;75;48.784;9.364;2022-07-25T06:14:13;13.37;;;12.00;;
173;SDS011;75;48.784;9.364;2022-07-25T06:16:39;13.60;;;10.13;;
173;SDS011;75;48.784;9.364;2022-07-25T06:19:05;14.47;;;12.20;;
173;SDS011;75;48.784;9.364;2022-07-25T06:21:31;14.43;;;12.97;;
173;SDS011;75;48.784;9.364;2022-07-25T06:23:57;14.63;;;12.50;;
173;SDS011;75;48.784;9.364;2022-07-25T06:26:23;15.47;;;12.70;;
173;SDS011;75;48.784;9.364;2022-07-25T06:28:49;14.00;;;12.93;;
173;SDS011;75;48.784;9.364;2022-07-25T06:31:17;15.37;;;13.10;;
173;SDS011;75;48.784;9.364;2022-07-25T06:33:43;15.57;;;12.93;;
173;SDS011;75;48.784;9.364;2022-07-25T06:36:09;13.93;;;12.77;;
173;SDS011;75;48.784;9.364;2022-07-25T06:38:35;18.73;;;13.07;;
173;SDS011;75;48.784;9.364;2022-07-25T06:41:00;14.07;;;12.73;;
173;SDS011;75;48.784;9.364;2022-07-25T06:43:26;14.17;;;12.50;;
173;SDS011;75;48.784;9.364;2022-07-25T06:45:51;15.73;;;13.50;;
173;SDS011;75;48.784;9.364;2022-07-25T06:48:17;14.00;;;12.90;;
173;SDS011;75;48.784;9.364;2022-07-25T06:50:43;13.50;;;12.57;;
173;SDS011;75;48.784;9.364;2022-07-25T06:53:09;15.13;;;12.60;;
173;SDS011;75;48.784;9.364;2022-07-25T06:55:35;15.57;;;13.17;;
173;SDS011;75;48.784;9.364;2022-07-25T06:58:00;15.20;;;13.20;;
173;SDS011;75;48.784;9.364;2022-07-25T07:00:26;14.20;;;12.40;;
173;SDS011;75;48.784;9.364;2022-07-25T07:02:53;17.70;;;12.90;;
173;SDS011;75;48.784;9.364;2022-07-25T07:05:21;15.17;;;13.20;;
173;SDS011;75;48.784;9.364;2022-07-25T07:07:47;15.50;;;12.83;;
173;SDS011;75;48.784;9.364;2022-07-25T07:10:13;14.70;;;12.90;;
173;SDS011;75;48.784;9.364;2022-07-25T07:12:40;15.17;;;13.17;;
173;SDS011;75;48.784;9.364;2022-07-25T07:15:05;15.27;;;13.27;;
173;SDS011;75;48.784;9.364;2022-07-25T07:17:31;13.17;;;12.47;;
173;SDS011;75;48.784;9.364;2022-07-25T07:19:57;13.23;;;12.50;;
173;SDS011;75;48.784;9.364;2022-07-25T07:22:22;17.10;;;13.03;;
173;SDS011;75;48.784;9.364;2022-07-25T07:24:48;14.80;;;13.27;;
173;SDS011;75;48.784;9.364;2022-07-25T07:27:14;17.33;;;13.10;;
173;SDS011;75;48.784;9.364;2022-07-25T07:29:39;14.20;;;12.53;;
173;SDS011;75;48.784;9.364;2022-07-25T07:32:06;17.10;;;12.90;;
173;SDS011;75;48.784;9.364;2022-07-25T07:34:31;14.77;;;13.00;;
173;SDS011;75;48.784;9.364;2022-07-25T07:36:57;15.20;;;12.50;;
173;SDS011;75;48.784;9.364;2022-07-25T07:39:23;16.80;;;13.10;;
173;SDS011;75;48.784;9.364;2022-07-25T07:41:48;18.40;;;12.63;;
173;SDS011;75;48.784;9.364;2022-07-25T07:44:14;14.00;;;12.50;;
173;SDS011;75;48.784;9.364;2022-07-25T07:46:39;13.80;;;12.57;;
173;SDS011;75;48.784;9.364;2022-07-25T07:49:05;15.10;;;12.07;;
173;SDS011;75;48.784;9.364;2022-07-25T07:51:31;13.53;;;12.03;;
173;SDS011;75;48.784;9.364;2022-07-25T07:53:57;16.00;;;12.90;;
173;SDS011;75;48.784;9.364;2022-07-25T07:56:41;17.97;;;12.30;;
173;SDS011;75;48.784;9.364;2022-07-25T07:59:06;12.80;;;11.80;;
173;SDS011;75;48.784;9.364;2022-07-25T08:01:32;15.30;;;13.10;;
173;SDS011;75;48.784;9.364;2022-07-25T08:03:58;13.80;;;12.70;;
173;SDS011;75;48.784;9.364;2022-07-25T08:06:24;14.07;;;12.13;;
173;SDS011;75;48.784;9.364;2022-07-25T08:08:51;14.17;;;12.27;;
173;SDS011;75;48.784;9.364;2022-07-25T08:11:17;15.90;;;13.30;;
173;SDS011;75;48.784;9.364;2022-07-25T08:13:43;13.70;;;12.57;;
173;SDS011;75;48.784;9.364;2022-07-25T08:16:08;13.97;;;11.90;;
173;SDS011;75;48.784;9.364;2022-07-25T08:18:35;15.53;;;12.80;;
173;SDS011;75;48.784;9.364;2022-07-25T08:21:02;14.47;;;13.03;;
173;SDS011;75;48.784;9.364;2022-07-25T08:23:30;14.77;;;13.00;;
173;SDS011;75;48.784;9.364;2022-07-25T08:25:58;16.10;;;13.50;;
173;SDS011;75;48.784;9.364;2022-07-25T08:28:24;15.70;;;13.37;;
173;SDS011;75;48.784;9.364;2022-07-25T08:30:50;15.27;;;13.90;;
173;SDS011;75;48.784;9.364;2022-07-25T08:33:16;16.17;;;14.10;;
173;SDS011;75;48.784;9.364;2022-07-25T08:35:49;14.60;;;13.30;;
173;SDS011;75;48.784;9.364;2022-07-25T08:38:17;16.80;;;13.70;;
173;SDS011;75;48.784;9.364;2022-07-25T08:40:44;16.63;;;14.30;;
173;SDS011;75;48.784;9.364;2022-07-25T08:43:10;20.27;;;13.83;;
173;SDS011;75;48.784;9.364;2022-07-25T08:48:10;15.50;;;13.53;;
173;SDS011;75;48.784;9.364;2022-07-25T08:50:35;15.80;;;13.23;;
173;SDS011;75;48.784;9.364;2022-07-25T08:53:03;17.57;;;14.10;;
173;SDS011;75;48.784;9.364;2022-07-25T08:55:30;16.80;;;14.30;;
173;SDS011;75;48.784;9.364;2022-07-25T08:57:55;15.20;;;14.03;;
173;SDS011;75;48.784;9.364;2022-07-25T09:00:22;17.60;;;14.30;;
173;SDS011;75;48.784;9.364;2022-07-25T09:02:50;15.60;;;13.80;;
173;SDS011;75;48.784;9.364;2022-07-25T09:05:19;17.63;;;14.00;;
173;SDS011;75;48.784;9.364;2022-07-25T09:07:45;14.77;;;13.50;;
173;SDS011;75;48.784;9.364;2022-07-25T09:10:22;17.83;;;14.73;;
173;SDS011;75;48.784;9.364;2022-07-25T09:15:28;15.07;;;13.57;;
173;SDS011;75;48.784;9.364;2022-07-25T09:17:59;16.00;;;14.60;;
173;SDS011;75;48.784;9.364;2022-07-25T09:20:46;16.23;;;13.90;;
173;SDS011;75;48.784;9.364;2022-07-25T09:23:14;15.10;;;13.90;;
173;SDS011;75;48.784;9.364;2022-07-25T09:26:02;15.73;;;13.60;;
173;SDS011;75;48.784;9.364;2022-07-25T09:28:38;14.47;;;12.77;;
173;SDS011;75;48.784;9.364;2022-07-25T09:31:08;15.87;;;13.10;;
173;SDS011;75;48.784;9.364;2022-07-25T09:33:43;15.17;;;13.27;;
173;SDS011;75;48.784;9.364;2022-07-25T09:36:16;15.10;;;13.50;;
173;SDS011;75;48.784;9.364;2022-07-25T09:38:55;15.80;;;13.90;;
173;SDS011;75;48.784;9.364;2022-07-25T09:41:35;16.90;;;13.47;;
173;SDS011;75;48.784;9.364;2022-07-25T09:44:02;18.80;;;13.90;;
173;SDS011;75;48.784;9.364;2022-07-25T09:46:29;16.80;;;13.70;;
173;SDS011;75;48.784;9.364;2022-07-25T09:48:56;14.40;;;13.27;;
173;SDS011;75;48.784;9.364;2022-07-25T09:51:24;16.13;;;13.73;;
173;SDS011;75;48.784;9.364;2022-07-25T09:53:50;14.93;;;13.47;;
173;SDS011;75;48.784;9.364;2022-07-25T09:56:16;15.70;;;13.20;;
173;SDS011;75;48.784;9.364;2022-07-25T09:58:42;15.37;;;14.17;;
173;SDS011;75;48.784;9.364;2022-07-25T10:01:07;15.10;;;13.43;;
173;SDS011;75;48.784;9.364;2022-07-25T10:09:11;15.47;;;14.00;;
173;SDS011;75;48.784;9.364;2022-07-25T10:11:37;15.50;;;12.93;;
173;SDS011;75;48.784;9.364;2022-07-25T10:14:10;14.17;;;13.13;;
173;SDS011;75;48.784;9.364;2022-07-25T10:16:46;15.50;;;13.70;;
173;SDS011;75;48.784;9.364;2022-07-25T10:19:12;15.93;;;13.73;;
173;SDS011;75;48.784;9.364;2022-07-25T10:21:38;18.10;;;14.07;;
173;SDS011;75;48.784;9.364;2022-07-25T10:24:05;14.83;;;14.03;;
173;SDS011;75;48.784;9.364;2022-07-25T10:26:38;17.47;;;14.60;;
173;SDS011;75;48.784;9.364;2022-07-25T10:29:15;16.37;;;14.07;;
173;SDS011;75;48.784;9.364;2022-07-25T10:31:41;22.50;;;14.30;;
173;SDS011;75;48.784;9.364;2022-07-25T10:34:10;15.53;;;14.00;;
173;SDS011;75;48.784;9.364;2022-07-25T10:39:09;15.97;;;13.80;;
173;SDS011;75;48.784;9.364;2022-07-25T10:41:37;15.90;;;12.90;;
173;SDS011;75;48.784;9.364;2022-07-25T10:44:09;15.87;;;13.57;;
173;SDS011;75;48.784;9.364;2022-07-25T10:46:39;13.80;;;12.80;;
173;SDS011;75;48.784;9.364;2022-07-25T10:49:08;15.80;;;13.37;;
173;SDS011;75;48.784;9.364;2022-07-25T10:52:03;14.03;;;12.80;;
173;SDS011;75;48.784;9.364;2022-07-25T10:55:20;16.03;;;14.00;;
173;SDS011;75;48.784;9.364;2022-07-25T10:57:20;16.30;;;14.10;;
173;SDS011;75;48.784;9.364;2022-07-25T10:59:46;15.30;;;13.37;;
173;SDS011;75;48.784;9.364;2022-07-25T11:02:12;14.40;;;12.90;;
173;SDS011;75;48.784;9.364;2022-07-25T11:04:41;15.80;;;14.00;;
173;SDS011;75;48.784;9.364;2022-07-25T11:07:14;15.30;;;13.07;;
173;SDS011;75;48.784;9.364;2022-07-25T11:09:43;18.57;;;13.37;;
173;SDS011;75;48.784;9.364;2022-07-25T11:12:19;14.63;;;13.50;;
173;SDS011;75;48.784;9.364;2022-07-25T11:14:45;14.53;;;12.97;;
173;SDS011;75;48.784;9.364;2022-07-25T11:17:15;15.70;;;13.50;;
173;SDS011;75;48.784;9.364;2022-07-25T11:22:22;16.53;;;13.07;;
173;SDS011;75;48.784;9.364;2022-07-25T11:24:48;17.40;;;13.07;;
173;SDS011;75;48.784;9.364;2022-07-25T11:27:22;16.73;;;13.80;;
173;SDS011;75;48.784;9.364;2022-07-25T11:29:49;14.37;;;12.17;;
173;SDS011;75;48.784;9.364;2022-07-25T11:32:15;14.07;;;12.83;;
173;SDS011;75;48.784;9.364;2022-07-25T11:34:43;15.60;;;12.93;;
173;SDS011;75;48.784;9.364;2022-07-25T11:37:12;14.73;;;12.67;;
173;SDS011;75;48.784;9.364;2022-07-25T11:39:39;17.30;;;12.80;;
173;SDS011;75;48.784;9.364;2022-07-25T11:42:08;14.23;;;13.17;;
173;SDS011;75;48.784;9.364;2022-07-25T11:47:27;13.73;;;11.90;;
173;SDS011;75;48.784;9.364;2022-07-25T11:49:56;13.57;;;12.20;;
173;SDS011;75;48.784;9.364;2022-07-25T11:52:34;15.93;;;13.10;;
173;SDS011;75;48.784;9.364;2022-07-25T11:55:05;13.00;;;12.03;;
173;SDS011;75;48.784;9.364;2022-07-25T11:57:33;20.53;;;12.57;;
173;SDS011;75;48.784;9.364;2022-07-25T12:00:01;12.43;;;11.80;;
173;SDS011;75;48.784;9.364;2022-07-25T12:02:32;14.50;;;11.63;;
173;SDS011;75;48.784;9.364;2022-07-25T12:05:02;15.00;;;12.60;;
173;SDS011;75;48.784;9.364;2022-07-25T12:07:34;14.00;;;12.30;;
173;SDS011;75;48.784;9.364;2022-07-25T12:10:04;14.03;;;12.33;;
173;SDS011;75;48.784;9.364;2022-07-25T12:15:21;13.30;;;11.73;;
173;SDS011;75;48.784;9.364;2022-07-25T12:18:00;13.50;;;11.23;;
173;SDS011;75;48.784;9.364;2022-07-25T12:22:55;13.60;;;11.43;;
173;SDS011;75;48.784;9.364;2022-07-25T12:25:22;16.00;;;11.77;;
173;SDS011;75;48.784;9.364;2022-07-25T12:27:48;13.70;;;11.60;;
173;SDS011;75;48.784;9.364;2022-07-25T12:30:15;14.90;;;12.03;;
173;SDS011;75;48.784;9.364;2022-07-25T12:32:41;13.23;;;11.47;;
173;SDS011;75;48.784;9.364;2022-07-25T12:35:08;11.37;;;10.80;;
173;SDS011;75;48.784;9.364;2022-07-25T12:37:35;12.40;;;11.27;;
173;SDS011;75;48.784;9.364;2022-07-25T12:40:01;15.63;;;11.17;;
173;SDS011;75;48.784;9.364;2022-07-25T12:42:28;12.00;;;10.67;;
173;SDS011;75;48.784;9.364;2022-07-25T12:44:53;13.00;;;11.40;;
173;SDS011;75;48.784;9.364;2022-07-25T12:47:23;12.17;;;11.07;;
173;SDS011;75;48.784;9.364;2022-07-25T12:49:51;13.37;;;10.87;;
173;SDS011;75;48.784;9.364;2022-07-25T12:52:16;13.23;;;10.03;;
173;SDS011;75;48.784;9.364;2022-07-25T12:54:42;10.93;;;9.23;;
173;SDS011;75;48.784;9.364;2022-07-25T12:57:08;12.23;;;10.10;;
173;SDS011;75;48.784;9.364;2022-07-25T12:59:35;11.57;;;9.83;;
173;SDS011;75;48.784;9.364;2022-07-25T13:02:00;10.10;;;9.53;;
173;SDS011;75;48.784;9.364;2022-07-25T13:04:26;12.47;;;9.90;;
173;SDS011;75;48.784;9.364;2022-07-25T13:06:56;13.40;;;10.27;;
173;SDS011;75;48.784;9.364;2022-07-25T13:09:23;11.13;;;9.73;;
173;SDS011;75;48.784;9.364;2022-07-25T13:11:50;11.70;;;9.30;;
173;SDS011;75;48.784;9.364;2022-07-25T13:14:16;11.70;;;9.37;;
173;SDS011;75;48.784;9.364;2022-07-25T13:16:42;14.20;;;9.73;;
173;SDS011;75;48.784;9.364;2022-07-25T13:19:09;12.23;;;10.60;;
173;SDS011;75;48.784;9.364;2022-07-25T13:21:35;13.33;;;10.30;;
173;SDS011;75;48.784;9.364;2022-07-25T13:24:01;12.63;;;9.37;;
173;SDS011;75;48.784;9.364;2022-07-25T13:26:28;11.20;;;8.73;;
173;SDS011;75;48.784;9.364;2022-07-25T13:28:53;11.40;;;9.40;;
173;SDS011;75;48.784;9.364;2022-07-25T13:31:19;12.70;;;9.80;;
173;SDS011;75;48.784;9.364;2022-07-25T13:33:46;13.73;;;10.23;;
173;SDS011;75;48.784;9.364;2022-07-25T13:36:13;11.53;;;9.63;;
173;SDS011;75;48.784;9.364;2022-07-25T13:38:40;10.90;;;9.40;;
173;SDS011;75;48.784;9.364;2022-07-25T13:41:07;10.07;;;9.53;;
173;SDS011;75;48.784;9.364;2022-07-25T13:43:33;12.80;;;9.93;;
173;SDS011;75;48.784;9.364;2022-07-25T13:45:59;11.00;;;9.53;;
173;SDS011;75;48.784;9.364;2022-07-25T13:48:26;11.73;;;9.67;;
173;SDS011;75;48.784;9.364;2022-07-25T13:50:51;10.70;;;9.90;;
173;SDS011;75;48.784;9.364;2022-07-25T13:53:17;10.70;;;9.70;;
173;SDS011;75;48.784;9.364;2022-07-25T13:55:43;13.30;;;11.10;;
173;SDS011;75;48.784;9.364;2022-07-25T13:58:08;13.80;;;10.93;;
173;SDS011;75;48.784;9.364;2022-07-25T14:00:34;11.63;;;10.53;;
173;SDS011;75;48.784;9.364;2022-07-25T14:03:00;12.67;;;10.30;;
173;SDS011;75;48.784;9.364;2022-07-25T14:05:25;11.40;;;10.23;;
173;SDS011;75;48.784;9.364;2022-07-25T14:07:51;12.30;;;10.00;;
173;SDS011;75;48.784;9.364;2022-07-25T14:10:17;12.50;;;10.37;;
173;SDS011;75;48.784;9.364;2022-07-25T14:12:42;13.17;;;10.43;;
173;SDS011;75;48.784;9.364;2022-07-25T14:15:08;15.50;;;11.00;;
173;SDS011;75;48.784;9.364;2022-07-25T14:17:34;12.60;;;11.37;;
173;SDS011;75;48.784;9.364;2022-07-25T14:20:00;12.30;;;10.73;;
173;SDS011;75;48.784;9.364;2022-07-25T14:22:27;14.53;;;11.53;;
173;SDS011;75;48.784;9.364;2022-07-25T14:24:53;11.80;;;10.47;;
173;SDS011;75;48.784;9.364;2022-07-25T14:27:19;13.33;;;10.60;;
173;SDS011;75;48.784;9.364;2022-07-25T14:29:45;14.50;;;10.50;;
173;SDS011;75;48.784;9.364;2022-07-25T14:32:10;12.67;;;10.20;;
173;SDS011;75;48.784;9.364;2022-07-25T14:34:36;12.67;;;10.63;;
173;SDS011;75;48.784;9.364;2022-07-25T14:37:04;12.73;;;10.90;;
173;SDS011;75;48.784;9.364;2022-07-25T14:39:30;12.53;;;10.20;;
173;SDS011;75;48.784;9.364;2022-07-25T14:41:56;12.43;;;10.63;;
173;SDS011;75;48.784;9.364;2022-07-25T14:44:23;12.00;;;10.20;;
173;SDS011;75;48.784;9.364;2022-07-25T14:46:51;11.93;;;10.57;;
173;SDS011;75;48.784;9.364;2022-07-25T14:49:17;16.40;;;11.23;;
173;SDS011;75;48.784;9.364;2022-07-25T14:51:43;11.90;;;11.20;;
173;SDS011;75;48.784;9.364;2022-07-25T14:54:09;11.30;;;10.60;;
173;SDS011;75;48.784;9.364;2022-07-25T14:56:36;11.70;;;10.57;;
173;SDS011;75;48.784;9.364;2022-07-25T14:59:02;13.23;;;10.57;;
173;SDS011;75;48.784;9.364;2022-07-25T15:01:28;12.37;;;11.20;;
173;SDS011;75;48.784;9.364;2022-07-25T15:03:54;15.80;;;10.33;;
173;SDS011;75;48.784;9.364;2022-07-25T15:06:22;13.00;;;10.73;;
173;SDS011;75;48.784;9.364;2022-07-25T15:08:48;13.70;;;11.30;;
173;SDS011;75;48.784;9.364;2022-07-25T15:11:16;12.93;;;11.40;;
173;SDS011;75;48.784;9.364;2022-07-25T15:13:42;15.10;;;12.00;;
173;SDS011;75;48.784;9.364;2022-07-25T15:16:08;12.70;;;10.90;;
173;SDS011;75;48.784;9.364;2022-07-25T15:18:34;12.87;;;11.17;;
173;SDS011;75;48.784;9.364;2022-07-25T15:21:00;13.20;;;11.27;;
173;SDS011;75;48.784;9.364;2022-07-25T15:23:26;15.87;;;11.30;;
173;SDS011;75;48.784;9.364;2022-07-25T15:25:52;12.07;;;11.03;;
173;SDS011;75;48.784;9.364;2022-07-25T15:28:19;14.13;;;10.93;;
173;SDS011;75;48.784;9.364;2022-07-25T15:30:45;16.80;;;10.97;;
173;SDS011;75;48.784;9.364;2022-07-25T15:33:14;12.57;;;11.00;;
173;SDS011;75;48.784;9.364;2022-07-25T15:35:42;14.43;;;10.90;;
173;SDS011;75;48.784;9.364;2022-07-25T15:38:09;13.73;;;10.80;;
173;SDS011;75;48.784;9.364;2022-07-25T15:40:35;13.37;;;11.67;;
173;SDS011;75;48.784;9.364;2022-07-25T15:43:02;11.47;;;10.87;;
173;SDS011;75;48.784;9.364;2022-07-25T15:45:28;15.50;;;11.37;;
173;SDS011;75;48.784;9.364;2022-07-25T15:47:53;17.00;;;11.33;;
173;SDS011;75;48.784;9.364;2022-07-25T15:50:20;13.70;;;10.90;;
173;SDS011;75;48.784;9.364;2022-07-25T15:52:47;18.00;;;10.80;;